sensor_id;sensor_type;location;lat;lon;timestamp;pressure;altitude;pressure_sealevel;temperature;humidity
75747;BME280;64363;52.198;21.020;2023-04-24T00:00:18;99491.78;;;13.35;53.34
75747;BME280;64363;52.198;21.020;2023-04-24T00:03:04;99492.97;;;13.30;53.64
75747;BME280;64363;52.198;21.020;2023-04-24T00:05:31;99492.03;;;13.31;53.49
75747;BME280;64363;52.198;21.020;2023-04-24T00:07:58;99485.13;;;13.27;54.54
75747;BME280;64363;52.198;21.020;2023-04-24T00:10:23;99480.22;;;13.19;54.57
75747;BME280;64363;52.198;21.020;2023-04-24T00:12:49;99482.34;;;13.12;53.98
75747;BME280;64363;52.198;21.020;2023-04-24T00:15:15;99486.00;;;13.11;54.09
75747;BME280;64363;52.198;21.020;2023-04-24T00:17:41;99486.84;;;13.12;54.20
75747;BME280;64363;52.198;21.020;2023-04-24T00:20:06;99481.75;;;13.07;54.38
75747;BME280;64363;52.198;21.020;2023-04-24T00:22:33;99483.00;;;13.00;54.42
75747;BME280;64363;52.198;21.020;2023-04-24T00:24:59;99470.69;;;12.98;54.40
75747;BME280;64363;52.198;21.020;2023-04-24T00:27:25;99483.19;;;12.97;54.29
75747;BME280;64363;52.198;21.020;2023-04-24T00:29:50;99482.25;;;12.98;54.54
75747;BME280;64363;52.198;21.020;2023-04-24T00:32:16;99473.09;;;13.02;54.41
75747;BME280;64363;52.198;21.020;2023-04-24T00:34:42;99478.63;;;12.99;53.89
75747;BME280;64363;52.198;21.020;2023-04-24T00:37:08;99467.19;;;12.96;53.47
75747;BME280;64363;52.198;21.020;2023-04-24T00:39:34;99462.56;;;12.99;54.16
75747;BME280;64363;52.198;21.020;2023-04-24T00:42:00;99469.03;;;12.95;53.95
75747;BME280;64363;52.198;21.020;2023-04-24T00:44:26;99454.97;;;12.92;54.09
75747;BME280;64363;52.198;21.020;2023-04-24T00:46:54;99466.50;;;12.92;53.76
75747;BME280;64363;52.198;21.020;2023-04-24T00:49:23;99468.34;;;12.92;54.10
75747;BME280;64363;52.198;21.020;2023-04-24T00:51:49;99467.75;;;12.87;54.60
75747;BME280;64363;52.198;21.020;2023-04-24T00:54:17;99467.38;;;12.93;54.61
75747;BME280;64363;52.198;21.020;2023-04-24T00:56:44;99472.03;;;12.89;55.16
75747;BME280;64363;52.198;21.020;2023-04-24T00:59:11;99463.56;;;12.81;56.37
75747;BME280;64363;52.198;21.020;2023-04-24T01:01:38;99463.31;;;12.70;57.67
75747;BME280;64363;52.198;21.020;2023-04-24T01:04:08;99457.34;;;12.65;57.17
75747;BME280;64363;52.198;21.020;2023-04-24T01:06:38;99459.06;;;12.66;56.79
75747;BME280;64363;52.198;21.020;2023-04-24T01:09:04;99460.81;;;12.67;57.08
75747;BME280;64363;52.198;21.020;2023-04-24T01:11:31;99465.28;;;12.66;56.52
75747;BME280;64363;52.198;21.020;2023-04-24T01:13:57;99467.03;;;12.68;57.31
75747;BME280;64363;52.198;21.020;2023-04-24T01:16:23;99471.34;;;12.70;56.88
75747;BME280;64363;52.198;21.020;2023-04-24T01:18:48;99464.06;;;12.72;57.54
75747;BME280;64363;52.198;21.020;2023-04-24T01:21:15;99467.47;;;12.76;56.66
75747;BME280;64363;52.198;21.020;2023-04-24T01:23:45;99465.81;;;12.73;57.94
75747;BME280;64363;52.198;21.020;2023-04-24T01:26:13;99465.91;;;12.72;57.48
75747;BME280;64363;52.198;21.020;2023-04-24T01:28:39;99462.38;;;12.71;57.28
75747;BME280;64363;52.198;21.020;2023-04-24T01:31:05;99467.88;;;12.68;56.76
75747;BME280;64363;52.198;21.020;2023-04-24T01:33:31;99465.19;;;12.68;56.38
75747;BME280;64363;52.198;21.020;2023-04-24T01:35:57;99461.06;;;12.62;57.80
75747;BME280;64363;52.198;21.020;2023-04-24T01:38:23;99464.91;;;12.57;57.45
75747;BME280;64363;52.198;21.020;2023-04-24T01:40:49;99453.88;;;12.47;59.13
75747;BME280;64363;52.198;21.020;2023-04-24T01:43:15;99455.06;;;12.42;58.96
75747;BME280;64363;52.198;21.020;2023-04-24T01:45:41;99454.19;;;12.41;58.11
75747;BME280;64363;52.198;21.020;2023-04-24T01:48:07;99455.22;;;12.39;58.46
75747;BME280;64363;52.198;21.020;2023-04-24T01:50:32;99450.03;;;12.36;58.33
75747;BME280;64363;52.198;21.020;2023-04-24T01:52:58;99449.19;;;12.35;58.10
75747;BME280;64363;52.198;21.020;2023-04-24T01:55:24;99443.13;;;12.32;58.31
75747;BME280;64363;52.198;21.020;2023-04-24T01:57:50;99442.69;;;12.24;57.80
75747;BME280;64363;52.198;21.020;2023-04-24T02:00:17;99441.72;;;12.25;57.90
75747;BME280;64363;52.198;21.020;2023-04-24T02:02:43;99439.28;;;12.20;57.48
75747;BME280;64363;52.198;21.020;2023-04-24T02:05:09;99435.91;;;12.16;58.26
75747;BME280;64363;52.198;21.020;2023-04-24T02:07:36;99429.88;;;12.13;58.64
75747;BME280;64363;52.198;21.020;2023-04-24T02:10:02;99439.81;;;12.11;57.90
75747;BME280;64363;52.198;21.020;2023-04-24T02:12:29;99439.81;;;12.11;58.28
75747;BME280;64363;52.198;21.020;2023-04-24T02:14:55;99431.84;;;12.09;59.28
75747;BME280;64363;52.198;21.020;2023-04-24T02:17:21;99430.13;;;12.08;58.36
75747;BME280;64363;52.198;21.020;2023-04-24T02:19:47;99430.22;;;12.07;58.52
75747;BME280;64363;52.198;21.020;2023-04-24T02:22:12;99418.84;;;12.03;58.25
75747;BME280;64363;52.198;21.020;2023-04-24T02:24:38;99421.50;;;12.03;58.35
75747;BME280;64363;52.198;21.020;2023-04-24T02:27:04;99407.41;;;12.00;58.13
75747;BME280;64363;52.198;21.020;2023-04-24T02:29:30;99409.50;;;11.95;59.13
75747;BME280;64363;52.198;21.020;2023-04-24T02:31:56;99417.50;;;11.95;59.17
75747;BME280;64363;52.198;21.020;2023-04-24T02:34:23;99405.25;;;11.91;59.76
75747;BME280;64363;52.198;21.020;2023-04-24T02:36:48;99404.56;;;11.87;59.18
75747;BME280;64363;52.198;21.020;2023-04-24T02:39:14;99416.56;;;11.79;59.63
75747;BME280;64363;52.198;21.020;2023-04-24T02:41:42;99409.88;;;11.70;59.97
75747;BME280;64363;52.198;21.020;2023-04-24T02:44:08;99413.03;;;11.78;59.58
75747;BME280;64363;52.198;21.020;2023-04-24T02:46:34;99411.53;;;11.72;59.08
75747;BME280;64363;52.198;21.020;2023-04-24T02:49:00;99415.19;;;11.70;59.59
75747;BME280;64363;52.198;21.020;2023-04-24T02:51:25;99423.38;;;11.67;59.51
75747;BME280;64363;52.198;21.020;2023-04-24T02:53:52;99413.69;;;11.64;59.43
75747;BME280;64363;52.198;21.020;2023-04-24T02:56:18;99410.44;;;11.59;59.81
75747;BME280;64363;52.198;21.020;2023-04-24T02:58:44;99407.75;;;11.59;59.86
75747;BME280;64363;52.198;21.020;2023-04-24T03:01:09;99405.84;;;11.61;60.37
75747;BME280;64363;52.198;21.020;2023-04-24T03:03:36;99405.78;;;11.63;59.68
75747;BME280;64363;52.198;21.020;2023-04-24T03:06:02;99405.78;;;11.63;60.17
75747;BME280;64363;52.198;21.020;2023-04-24T03:08:28;99404.75;;;11.65;59.03
75747;BME280;64363;52.198;21.020;2023-04-24T03:10:53;99407.50;;;11.64;59.36
75747;BME280;64363;52.198;21.020;2023-04-24T03:13:19;99406.78;;;11.60;59.62
75747;BME280;64363;52.198;21.020;2023-04-24T03:15:45;99402.66;;;11.55;59.23
75747;BME280;64363;52.198;21.020;2023-04-24T03:18:12;99407.00;;;11.56;59.36
75747;BME280;64363;52.198;21.020;2023-04-24T03:20:37;99403.50;;;11.55;59.63
75747;BME280;64363;52.198;21.020;2023-04-24T03:23:03;99410.50;;;11.58;59.94
75747;BME280;64363;52.198;21.020;2023-04-24T03:25:29;99407.97;;;11.55;59.72
75747;BME280;64363;52.198;21.020;2023-04-24T03:27:55;99406.47;;;11.49;60.55
75747;BME280;64363;52.198;21.020;2023-04-24T03:30:20;99411.81;;;11.49;59.94
75747;BME280;64363;52.198;21.020;2023-04-24T03:32:46;99411.88;;;11.48;60.23
75747;BME280;64363;52.198;21.020;2023-04-24T03:35:12;99412.84;;;11.47;60.78
75747;BME280;64363;52.198;21.020;2023-04-24T03:37:38;99416.06;;;11.53;60.83
75747;BME280;64363;52.198;21.020;2023-04-24T03:40:04;99415.19;;;11.53;60.51
75747;BME280;64363;52.198;21.020;2023-04-24T03:42:31;99418.66;;;11.55;60.09
75747;BME280;64363;52.198;21.020;2023-04-24T03:44:57;99420.06;;;11.62;59.95
75747;BME280;64363;52.198;21.020;2023-04-24T03:47:22;99423.69;;;11.61;60.95
75747;BME280;64363;52.198;21.020;2023-04-24T03:49:48;99423.50;;;11.64;60.62
75747;BME280;64363;52.198;21.020;2023-04-24T03:52:14;99415.19;;;11.70;60.09
75747;BME280;64363;52.198;21.020;2023-04-24T03:54:39;99417.75;;;11.73;59.72
75747;BME280;64363;52.198;21.020;2023-04-24T03:57:05;99421.22;;;11.75;59.94
75747;BME280;64363;52.198;21.020;2023-04-24T03:59:31;99417.56;;;11.76;59.84
75747;BME280;64363;52.198;21.020;2023-04-24T04:01:56;99419.53;;;11.72;60.58
75747;BME280;64363;52.198;21.020;2023-04-24T04:04:22;99417.00;;;11.69;60.62
75747;BME280;64363;52.198;21.020;2023-04-24T04:06:48;99415.19;;;11.70;60.36
75747;BME280;64363;52.198;21.020;2023-04-24T04:09:14;99427.63;;;11.71;60.82
75747;BME280;64363;52.198;21.020;2023-04-24T04:11:40;99415.00;;;11.75;60.17
75747;BME280;64363;52.198;21.020;2023-04-24T04:14:06;99416.81;;;11.74;59.91
75747;BME280;64363;52.198;21.020;2023-04-24T04:16:31;99423.00;;;11.75;60.29
75747;BME280;64363;52.198;21.020;2023-04-24T04:18:57;99417.69;;;11.75;60.17
75747;BME280;64363;52.198;21.020;2023-04-24T04:21:24;99430.78;;;11.79;60.68
75747;BME280;64363;52.198;21.020;2023-04-24T04:23:49;99424.34;;;11.83;60.09
75747;BME280;64363;52.198;21.020;2023-04-24T04:26:15;99428.88;;;11.81;60.40
75747;BME280;64363;52.198;21.020;2023-04-24T04:28:41;99426.06;;;11.84;60.58
75747;BME280;64363;52.198;21.020;2023-04-24T04:31:07;99422.16;;;11.91;59.67
75747;BME280;64363;52.198;21.020;2023-04-24T04:33:33;99425.66;;;11.92;60.07
75747;BME280;64363;52.198;21.020;2023-04-24T04:35:59;99429.81;;;11.97;60.37
75747;BME280;64363;52.198;21.020;2023-04-24T04:38:25;99434.06;;;12.01;60.17
75747;BME280;64363;52.198;21.020;2023-04-24T04:40:55;99424.06;;;12.05;60.71
75747;BME280;64363;52.198;21.020;2023-04-24T04:43:24;99419.13;;;12.14;60.92
75747;BME280;64363;52.198;21.020;2023-04-24T04:45:50;99411.00;;;12.16;60.76
75747;BME280;64363;52.198;21.020;2023-04-24T04:48:20;99416.56;;;12.29;59.86
75747;BME280;64363;52.198;21.020;2023-04-24T04:50:45;99412.59;;;12.36;59.17
75747;BME280;64363;52.198;21.020;2023-04-24T04:53:11;99412.47;;;12.39;60.10
75747;BME280;64363;52.198;21.020;2023-04-24T04:55:37;99414.72;;;12.46;59.40
75747;BME280;64363;52.198;21.020;2023-04-24T04:58:03;99408.66;;;12.43;59.81
75747;BME280;64363;52.198;21.020;2023-04-24T05:00:29;99416.44;;;12.47;59.28
75747;BME280;64363;52.198;21.020;2023-04-24T05:02:59;99403.59;;;12.54;59.54
75747;BME280;64363;52.198;21.020;2023-04-24T05:05:25;99411.25;;;12.60;59.22
75747;BME280;64363;52.198;21.020;2023-04-24T05:07:50;99407.91;;;12.72;59.32
75747;BME280;64363;52.198;21.020;2023-04-24T05:10:16;99405.66;;;12.80;58.73
75747;BME280;64363;52.198;21.020;2023-04-24T05:12:42;99402.84;;;12.83;58.20
75747;BME280;64363;52.198;21.020;2023-04-24T05:15:08;99414.41;;;12.99;58.54
75747;BME280;64363;52.198;21.020;2023-04-24T05:17:34;99407.56;;;13.09;57.95
75747;BME280;64363;52.198;21.020;2023-04-24T05:19:59;99405.94;;;13.23;57.93
75747;BME280;64363;52.198;21.020;2023-04-24T05:22:25;99411.47;;;13.35;56.78
75747;BME280;64363;52.198;21.020;2023-04-24T05:24:51;99403.72;;;13.45;57.45
75747;BME280;64363;52.198;21.020;2023-04-24T05:27:17;99403.13;;;13.55;56.85
75747;BME280;64363;52.198;21.020;2023-04-24T05:29:43;99408.50;;;13.70;56.53
75747;BME280;64363;52.198;21.020;2023-04-24T05:32:09;99410.63;;;13.79;56.40
75747;BME280;64363;52.198;21.020;2023-04-24T05:34:34;99404.03;;;13.84;56.11
75747;BME280;64363;52.198;21.020;2023-04-24T05:37:00;99403.22;;;13.98;55.76
75747;BME280;64363;52.198;21.020;2023-04-24T05:39:26;99399.09;;;14.06;55.29
75747;BME280;64363;52.198;21.020;2023-04-24T05:41:52;99398.16;;;14.22;54.33
75747;BME280;64363;52.198;21.020;2023-04-24T05:44:18;99399.31;;;14.32;54.43
75747;BME280;64363;52.198;21.020;2023-04-24T05:46:43;99395.31;;;14.39;54.91
75747;BME280;64363;52.198;21.020;2023-04-24T05:49:09;99394.94;;;14.45;54.88
75747;BME280;64363;52.198;21.020;2023-04-24T05:51:35;99393.50;;;14.53;55.19
75747;BME280;64363;52.198;21.020;2023-04-24T05:54:01;99391.47;;;14.57;54.75
75747;BME280;64363;52.198;21.020;2023-04-24T05:56:28;99398.38;;;14.47;53.68
75747;BME280;64363;52.198;21.020;2023-04-24T05:58:54;99397.59;;;14.45;54.29
75747;BME280;64363;52.198;21.020;2023-04-24T06:01:20;99396.66;;;14.46;54.35
75747;BME280;64363;52.198;21.020;2023-04-24T06:03:46;99394.63;;;14.49;54.97
75747;BME280;64363;52.198;21.020;2023-04-24T06:06:12;99389.56;;;14.45;54.25
75747;BME280;64363;52.198;21.020;2023-04-24T06:08:37;99391.97;;;14.49;54.87
75747;BME280;64363;52.198;21.020;2023-04-24T06:11:03;99390.91;;;14.52;54.90
75747;BME280;64363;52.198;21.020;2023-04-24T06:13:29;99374.41;;;14.58;56.61
75747;BME280;64363;52.198;21.020;2023-04-24T06:15:54;99393.56;;;14.66;55.87
75747;BME280;64363;52.198;21.020;2023-04-24T06:18:20;99382.47;;;14.72;56.03
75747;BME280;64363;52.198;21.020;2023-04-24T06:20:46;99383.88;;;14.78;55.58
75747;BME280;64363;52.198;21.020;2023-04-24T06:23:12;99384.53;;;14.81;55.63
75747;BME280;64363;52.198;21.020;2023-04-24T06:25:38;99376.97;;;14.88;55.28
75747;BME280;64363;52.198;21.020;2023-04-24T06:28:04;99385.31;;;14.83;53.37
75747;BME280;64363;52.198;21.020;2023-04-24T06:30:30;99375.59;;;14.95;53.83
75747;BME280;64363;52.198;21.020;2023-04-24T06:32:56;99379.16;;;14.95;54.53
75747;BME280;64363;52.198;21.020;2023-04-24T06:35:21;99381.53;;;15.00;54.34
75747;BME280;64363;52.198;21.020;2023-04-24T06:37:47;99374.88;;;15.06;53.88
75747;BME280;64363;52.198;21.020;2023-04-24T06:40:13;99374.28;;;15.15;54.73
75747;BME280;64363;52.198;21.020;2023-04-24T06:42:39;99371.19;;;15.21;54.54
75747;BME280;64363;52.198;21.020;2023-04-24T06:45:05;99360.78;;;15.29;54.20
75747;BME280;64363;52.198;21.020;2023-04-24T06:47:31;99361.13;;;15.37;54.03
75747;BME280;64363;52.198;21.020;2023-04-24T06:49:57;99363.97;;;15.48;54.91
75747;BME280;64363;52.198;21.020;2023-04-24T06:52:23;99365.09;;;15.58;54.42
75747;BME280;64363;52.198;21.020;2023-04-24T06:54:48;99368.03;;;15.68;53.53
75747;BME280;64363;52.198;21.020;2023-04-24T06:57:14;99366.53;;;15.76;54.03
75747;BME280;64363;52.198;21.020;2023-04-24T06:59:41;99367.59;;;15.86;53.78
75747;BME280;64363;52.198;21.020;2023-04-24T07:02:07;99361.16;;;16.02;53.59
75747;BME280;64363;52.198;21.020;2023-04-24T07:04:33;99362.88;;;16.15;53.45
75747;BME280;64363;52.198;21.020;2023-04-24T07:06:59;99361.38;;;16.24;52.72
75747;BME280;64363;52.198;21.020;2023-04-24T07:09:25;99363.75;;;16.16;52.47
75747;BME280;64363;52.198;21.020;2023-04-24T07:11:52;99363.97;;;16.13;52.32
75747;BME280;64363;52.198;21.020;2023-04-24T07:14:18;99361.38;;;16.24;53.34
75747;BME280;64363;52.198;21.020;2023-04-24T07:16:44;99362.22;;;16.37;53.04
75747;BME280;64363;52.198;21.020;2023-04-24T07:19:10;99357.44;;;16.53;52.61
75747;BME280;64363;52.198;21.020;2023-04-24T07:21:36;99356.41;;;16.68;52.58
75747;BME280;64363;52.198;21.020;2023-04-24T07:24:02;99356.09;;;16.97;52.09
75747;BME280;64363;52.198;21.020;2023-04-24T07:26:31;99360.34;;;17.12;51.48
75747;BME280;64363;52.198;21.020;2023-04-24T07:28:56;99362.78;;;17.15;51.66
75747;BME280;64363;52.198;21.020;2023-04-24T07:31:22;99356.31;;;17.17;51.36
75747;BME280;64363;52.198;21.020;2023-04-24T07:33:48;99355.22;;;17.20;50.98
75747;BME280;64363;52.198;21.020;2023-04-24T07:36:14;99361.63;;;17.30;50.22
75747;BME280;64363;52.198;21.020;2023-04-24T07:38:45;99361.97;;;17.49;48.97
75747;BME280;64363;52.198;21.020;2023-04-24T07:41:14;99362.94;;;17.72;49.00
75747;BME280;64363;52.198;21.020;2023-04-24T07:43:40;99357.25;;;17.99;47.32
75747;BME280;64363;52.198;21.020;2023-04-24T07:46:07;99360.72;;;18.12;47.90
75747;BME280;64363;52.198;21.020;2023-04-24T07:48:33;99351.66;;;18.24;46.90
75747;BME280;64363;52.198;21.020;2023-04-24T07:50:58;99360.97;;;18.42;48.57
75747;BME280;64363;52.198;21.020;2023-04-24T07:53:24;99358.50;;;18.50;46.08
75747;BME280;64363;52.198;21.020;2023-04-24T07:55:50;99354.00;;;18.62;45.55
75747;BME280;64363;52.198;21.020;2023-04-24T07:58:15;99349.69;;;18.70;47.21
75747;BME280;64363;52.198;21.020;2023-04-24T08:00:42;99348.47;;;18.75;47.24
75747;BME280;64363;52.198;21.020;2023-04-24T08:03:07;99349.22;;;18.65;46.27
75747;BME280;64363;52.198;21.020;2023-04-24T08:05:33;99347.34;;;18.66;46.88
75747;BME280;64363;52.198;21.020;2023-04-24T08:07:59;99349.34;;;18.64;47.21
75747;BME280;64363;52.198;21.020;2023-04-24T08:10:25;99354.34;;;18.80;47.56
75747;BME280;64363;52.198;21.020;2023-04-24T08:12:52;99351.84;;;18.99;46.55
75747;BME280;64363;52.198;21.020;2023-04-24T08:15:18;99347.16;;;19.12;46.10
75747;BME280;64363;52.198;21.020;2023-04-24T08:17:43;99350.53;;;19.36;45.47
75747;BME280;64363;52.198;21.020;2023-04-24T08:20:10;99351.22;;;19.38;45.54
75747;BME280;64363;52.198;21.020;2023-04-24T08:22:39;99352.50;;;19.45;45.78
75747;BME280;64363;52.198;21.020;2023-04-24T08:25:06;99350.91;;;19.32;44.80
75747;BME280;64363;52.198;21.020;2023-04-24T08:27:32;99349.28;;;19.40;45.37
75747;BME280;64363;52.198;21.020;2023-04-24T08:29:58;99339.22;;;19.42;44.93
75747;BME280;64363;52.198;21.020;2023-04-24T08:32:26;99345.19;;;19.57;44.93
75747;BME280;64363;52.198;21.020;2023-04-24T08:34:56;99335.41;;;19.86;44.63
75747;BME280;64363;52.198;21.020;2023-04-24T08:37:22;99344.00;;;19.91;43.96
75747;BME280;64363;52.198;21.020;2023-04-24T08:39:49;99348.81;;;20.08;43.58
75747;BME280;64363;52.198;21.020;2023-04-24T08:42:15;99343.41;;;20.29;42.87
75747;BME280;64363;52.198;21.020;2023-04-24T08:44:43;99345.06;;;20.51;42.99
75747;BME280;64363;52.198;21.020;2023-04-24T08:47:10;99341.59;;;20.70;44.34
75747;BME280;64363;52.198;21.020;2023-04-24T08:49:37;99334.22;;;20.91;42.54
75747;BME280;64363;52.198;21.020;2023-04-24T08:52:04;99332.97;;;21.05;42.14
75747;BME280;64363;52.198;21.020;2023-04-24T08:54:33;99336.03;;;21.30;42.80
75747;BME280;64363;52.198;21.020;2023-04-24T08:57:00;99335.31;;;21.57;43.10
75747;BME280;64363;52.198;21.020;2023-04-24T08:59:32;99334.44;;;21.76;40.39
75747;BME280;64363;52.198;21.020;2023-04-24T09:01:59;99336.88;;;21.88;39.70
75747;BME280;64363;52.198;21.020;2023-04-24T09:04:25;99334.75;;;21.92;41.13
75747;BME280;64363;52.198;21.020;2023-04-24T09:06:55;99336.28;;;22.04;39.65
75747;BME280;64363;52.198;21.020;2023-04-24T09:09:22;99340.59;;;21.97;39.97
75747;BME280;64363;52.198;21.020;2023-04-24T09:11:49;99336.72;;;21.80;39.62
75747;BME280;64363;52.198;21.020;2023-04-24T09:14:16;99334.03;;;21.61;40.66
75747;BME280;64363;52.198;21.020;2023-04-24T09:16:42;99328.34;;;21.45;42.02
75747;BME280;64363;52.198;21.020;2023-04-24T09:19:08;99328.75;;;21.21;42.00
75747;BME280;64363;52.198;21.020;2023-04-24T09:21:34;99328.59;;;21.13;42.49
75747;BME280;64363;52.198;21.020;2023-04-24T09:24:05;99326.31;;;21.28;41.97
75747;BME280;64363;52.198;21.020;2023-04-24T09:26:34;99326.31;;;21.57;43.05
75747;BME280;64363;52.198;21.020;2023-04-24T09:29:01;99315.44;;;21.95;41.34
75747;BME280;64363;52.198;21.020;2023-04-24T09:31:28;99320.44;;;22.09;39.46
75747;BME280;64363;52.198;21.020;2023-04-24T09:33:59;99312.81;;;22.22;39.47
75747;BME280;64363;52.198;21.020;2023-04-24T09:36:30;99315.66;;;22.30;39.57
75747;BME280;64363;52.198;21.020;2023-04-24T09:39:00;99311.53;;;22.17;39.28
75747;BME280;64363;52.198;21.020;2023-04-24T09:41:26;99307.31;;;21.85;37.96
75747;BME280;64363;52.198;21.020;2023-04-24T09:43:57;99303.19;;;21.72;38.59
75747;BME280;64363;52.198;21.020;2023-04-24T09:46:30;99306.03;;;21.80;40.96
75747;BME280;64363;52.198;21.020;2023-04-24T09:48:57;99310.44;;;21.81;38.11
75747;BME280;64363;52.198;21.020;2023-04-24T09:51:35;99299.91;;;21.78;37.23
75747;BME280;64363;52.198;21.020;2023-04-24T09:54:13;99301.44;;;21.80;38.07
75747;BME280;64363;52.198;21.020;2023-04-24T09:56:41;99293.78;;;21.66;36.39
75747;BME280;64363;52.198;21.020;2023-04-24T09:59:07;99290.91;;;21.68;37.12
75747;BME280;64363;52.198;21.020;2023-04-24T10:01:33;99284.91;;;21.74;38.67
75747;BME280;64363;52.198;21.020;2023-04-24T10:03:59;99278.00;;;21.89;39.15
75747;BME280;64363;52.198;21.020;2023-04-24T10:06:34;99282.88;;;21.85;39.06
75747;BME280;64363;52.198;21.020;2023-04-24T10:09:01;99281.72;;;21.88;38.29
75747;BME280;64363;52.198;21.020;2023-04-24T10:11:27;99278.03;;;21.79;39.59
75747;BME280;64363;52.198;21.020;2023-04-24T10:13:54;99283.75;;;21.67;40.24
75747;BME280;64363;52.198;21.020;2023-04-24T10:16:21;99281.34;;;21.64;38.98
75747;BME280;64363;52.198;21.020;2023-04-24T10:18:48;99280.91;;;21.78;38.65
75747;BME280;64363;52.198;21.020;2023-04-24T10:21:17;99283.41;;;22.08;39.97
75747;BME280;64363;52.198;21.020;2023-04-24T10:23:43;99275.03;;;22.38;37.94
75747;BME280;64363;52.198;21.020;2023-04-24T10:26:09;99264.28;;;22.74;36.51
75747;BME280;64363;52.198;21.020;2023-04-24T10:28:36;99268.28;;;23.15;36.71
75747;BME280;64363;52.198;21.020;2023-04-24T10:31:02;99261.19;;;23.75;35.33
75747;BME280;64363;52.198;21.020;2023-04-24T10:33:30;99262.19;;;25.01;33.53
75747;BME280;64363;52.198;21.020;2023-04-24T10:35:56;99264.34;;;26.82;30.92
75747;BME280;64363;52.198;21.020;2023-04-24T10:38:26;99256.31;;;28.61;28.22
75747;BME280;64363;52.198;21.020;2023-04-24T10:41:10;99253.41;;;30.26;26.03
75747;BME280;64363;52.198;21.020;2023-04-24T10:43:39;99245.56;;;31.66;25.60
75747;BME280;64363;52.198;21.020;2023-04-24T10:46:06;99239.59;;;31.88;23.44
75747;BME280;64363;52.198;21.020;2023-04-24T10:48:33;99238.34;;;32.11;22.07
75747;BME280;64363;52.198;21.020;2023-04-24T10:50:59;99230.56;;;31.01;21.29
75747;BME280;64363;52.198;21.020;2023-04-24T10:53:30;99236.63;;;32.03;20.83
75747;BME280;64363;52.198;21.020;2023-04-24T10:56:08;99232.72;;;33.14;19.97
75747;BME280;64363;52.198;21.020;2023-04-24T10:58:51;99236.47;;;33.64;20.02
75747;BME280;64363;52.198;21.020;2023-04-24T11:01:26;99226.59;;;34.24;19.26
75747;BME280;64363;52.198;21.020;2023-04-24T11:04:00;99229.06;;;34.87;18.38
75747;BME280;64363;52.198;21.020;2023-04-24T11:06:30;99225.03;;;35.61;17.33
75747;BME280;64363;52.198;21.020;2023-04-24T11:09:05;99236.31;;;35.36;16.85
75747;BME280;64363;52.198;21.020;2023-04-24T11:11:31;99224.53;;;35.52;17.83
75747;BME280;64363;52.198;21.020;2023-04-24T11:16:27;99239.47;;;35.93;16.93
75747;BME280;64363;52.198;21.020;2023-04-24T11:22:03;99222.88;;;35.21;16.56
75747;BME280;64363;52.198;21.020;2023-04-24T11:24:37;99221.03;;;34.00;17.44
75747;BME280;64363;52.198;21.020;2023-04-24T11:29:39;99231.94;;;30.08;21.51
75747;BME280;64363;52.198;21.020;2023-04-24T11:32:38;99226.81;;;28.93;24.49
75747;BME280;64363;52.198;21.020;2023-04-24T11:35:23;99217.88;;;28.11;22.72
75747;BME280;64363;52.198;21.020;2023-04-24T11:37:52;99219.13;;;27.25;24.18
75747;BME280;64363;52.198;21.020;2023-04-24T11:40:19;99222.47;;;26.51;24.39
75747;BME280;64363;52.198;21.020;2023-04-24T11:42:50;99217.78;;;26.13;25.53
75747;BME280;64363;52.198;21.020;2023-04-24T11:47:43;99219.97;;;25.54;26.06
75747;BME280;64363;52.198;21.020;2023-04-24T11:50:15;99221.66;;;25.55;28.13
75747;BME280;64363;52.198;21.020;2023-04-24T11:52:43;99212.41;;;25.40;26.98
75747;BME280;64363;52.198;21.020;2023-04-24T11:57:49;99208.97;;;24.97;27.68
75747;BME280;64363;52.198;21.020;2023-04-24T12:00:26;99208.09;;;24.89;27.56
75747;BME280;64363;52.198;21.020;2023-04-24T12:03:11;99206.19;;;24.81;28.76
75747;BME280;64363;52.198;21.020;2023-04-24T12:05:38;99201.91;;;24.62;28.58
75747;BME280;64363;52.198;21.020;2023-04-24T12:08:04;99204.19;;;24.41;27.90
75747;BME280;64363;52.198;21.020;2023-04-24T12:10:32;99200.69;;;24.65;30.80
75747;BME280;64363;52.198;21.020;2023-04-24T12:12:58;99194.91;;;24.68;31.09
75747;BME280;64363;52.198;21.020;2023-04-24T12:15:26;99192.69;;;24.71;29.38
75747;BME280;64363;52.198;21.020;2023-04-24T12:17:53;99180.34;;;24.93;29.51
75747;BME280;64363;52.198;21.020;2023-04-24T12:20:29;99186.41;;;24.63;28.40
75747;BME280;64363;52.198;21.020;2023-04-24T12:22:57;99187.09;;;24.73;28.71
75747;BME280;64363;52.198;21.020;2023-04-24T12:25:25;99181.63;;;24.73;28.60
75747;BME280;64363;52.198;21.020;2023-04-24T12:30:31;99188.97;;;24.73;28.93
75747;BME280;64363;52.198;21.020;2023-04-24T12:32:58;99175.50;;;24.63;27.06
75747;BME280;64363;52.198;21.020;2023-04-24T12:35:27;99171.69;;;24.48;28.14
75747;BME280;64363;52.198;21.020;2023-04-24T12:37:53;99174.13;;;24.59;30.32
75747;BME280;64363;52.198;21.020;2023-04-24T12:40:20;99173.78;;;24.62;29.45
75747;BME280;64363;52.198;21.020;2023-04-24T12:42:50;99187.78;;;24.67;30.86
75747;BME280;64363;52.198;21.020;2023-04-24T12:45:18;99199.19;;;23.95;29.66
75747;BME280;64363;52.198;21.020;2023-04-24T12:47:45;99201.97;;;23.33;31.07
75747;BME280;64363;52.198;21.020;2023-04-24T12:50:13;99210.25;;;23.93;30.19
75747;BME280;64363;52.198;21.020;2023-04-24T12:52:40;99205.13;;;23.90;30.05
75747;BME280;64363;52.198;21.020;2023-04-24T12:55:07;99211.81;;;24.04;30.42
75747;BME280;64363;52.198;21.020;2023-04-24T12:57:38;99222.63;;;23.88;30.39
75747;BME280;64363;52.198;21.020;2023-04-24T13:00:05;99230.81;;;22.91;32.82
75747;BME280;64363;52.198;21.020;2023-04-24T13:02:32;99232.13;;;22.87;32.27
75747;BME280;64363;52.198;21.020;2023-04-24T13:04:59;99216.84;;;22.86;31.93